Howard City, MI

6:56 PM EST on December 03, 2016 (GMT -0500)
Smits Residence | | Change Station

Elev 925 ft 43.40 °N, 85.40 °W | Updated 27 seconds ago

Overcast
Overcast
33.8 °F
Feels Like 34 °F
N
2.0
Wind Variable Wind from West

Today
High -- | Low -- °F
--% Chance of Precip.
Yesterday
High -- | Low -- °F
Precip. -- in
Pressure 30.27 in
Visibility 10.0 miles
Clouds Mostly Cloudy 2200 ft
Overcast 3600 ft
Windchill 34 °F
Dew Point 29 °F
Humidity 83%
Rainfall 0.00 in
Snow Depth Not available.
7:57 AM 5:06 PM
Waxing Crescent, 18% visible
METAR KRQB 032334Z AUTO 25005KT 10SM BKN022 OVC036 02/M02 A3027 RMK AO2 T00151020
Pressure 30.27 in
Visibility 10.0 miles
Clouds Mostly Cloudy 2200 ft
Overcast 3600 ft
Windchill 34 °F
Dew Point 29 °F
Humidity 83%
Rainfall 0.00 in
Snow Depth Not available.
7:57 AM 5:06 PM
Waxing Crescent, 18% visible
METAR KRQB 032334Z AUTO 25005KT 10SM BKN022 OVC036 02/M02 A3027 RMK AO2 T00151020

10-Day Weather Forecast

Almanac

Astronomy

Dec. 03, 2016 Rise Set
Actual Time
Civil Twilight
Nautical Twilight
Astronomical Twilight
Moon
Length of Visible Light
Length of Day
Tomorrow will be .
, % of the Moon is Illuminated

Today's Extremes

State Highs State Lows

Community

WunderPhotos

Upload Photos

1,955,536 photos uploaded!

WunderBlog® & News

Nearby

Air Quality

  Air Quality AQ Index Pollutant
Not available.

Snow Depth

Station Depth Elevation

Earthquake Activity

City Distance Mag. Time & Date
Minimum magnitude displayed is 2.5.

Coastal Water Temperatures

Place Temperature

Stations

Nearby Weather Stations

Station Location Temp. Windchill Dew Point Humidity Wind Precip. Elev Updated Type
                   

Watches & Warnings

There are currently no watches in effect.